Wells Town, Mississippi
Current Conditions -  °F | °C
As of 9:53 AM on Monday 26 Jan 2015 (Local Time) from KHBG Reporting Station
Few Clouds Few Clouds  
Wind Chill: 51°   Ceiling: Unl
Heat Index: 51°   Visibility: 10mi
Dew Point: 36°   Wind: 13mph
Humidity: 56%   Direction: 330°NNW
Pressure: 30.13"   Gusts: 22mph
Location:  31.0601°N, 89.4815°W
Report Text: KHBG 261553Z AUTO 33011G19KT 10SM FEW032 11/02 A3013 RMK AO2 SLP202 T01060022
Loading
Personal Weather Stations






























Interactive Weather Map New forecast layout! Learn more

10-Day Weather Forecast

Advertisements
Track Severe Weather on mobile